createdAt,value
2023-04-30T00:02:16.165Z,99572.22
2023-04-30T00:04:44.958Z,99567.05
2023-04-30T00:07:13.435Z,99573.71
2023-04-30T00:09:41.864Z,99569.20
2023-04-30T00:12:10.402Z,99561.36
2023-04-30T00:14:38.753Z,99570.32
2023-04-30T00:17:07.125Z,99573.52
2023-04-30T00:19:35.702Z,99568.79
2023-04-30T00:22:05.704Z,99572.75
2023-04-30T00:24:34.198Z,99570.79
2023-04-30T00:27:02.574Z,99569.69
2023-04-30T00:29:31.004Z,99566.97
2023-04-30T00:31:59.743Z,99544.34
2023-04-30T00:34:30.845Z,99562.38
2023-04-30T00:36:59.244Z,99563.91
2023-04-30T00:39:27.602Z,99560.45
2023-04-30T00:41:56.079Z,99541.79
2023-04-30T00:44:24.780Z,99554.05
2023-04-30T00:46:53.379Z,99556.75
2023-04-30T00:49:21.889Z,99547.51
2023-04-30T00:51:51.328Z,99554.04
2023-04-30T00:54:21.285Z,99550.74
2023-04-30T00:56:49.861Z,99547.27
2023-04-30T00:59:18.668Z,99540.88
2023-04-30T01:01:47.654Z,99540.77
2023-04-30T01:04:16.348Z,99536.77
2023-04-30T01:06:44.831Z,99538.67
2023-04-30T01:09:13.376Z,99526.44
2023-04-30T01:12:14.214Z,99537.25
2023-04-30T01:15:15.564Z,99535.08
2023-04-30T01:17:52.127Z,99512.20
2023-04-30T01:20:20.943Z,99525.05
2023-04-30T01:23:31.177Z,99522.61
2023-04-30T01:26:20.052Z,99525.62
2023-04-30T01:28:50.606Z,99523.08
2023-04-30T01:31:19.928Z,99520.55
2023-04-30T01:33:48.380Z,99517.64
2023-04-30T01:36:25.861Z,99517.52
2023-04-30T01:39:15.585Z,99516.98
2023-04-30T01:41:47.696Z,99515.86
2023-04-30T01:44:44.489Z,99512.14
2023-04-30T01:47:21.079Z,99513.30
2023-04-30T01:50:11.815Z,99512.23
2023-04-30T01:52:46.881Z,99497.86
2023-04-30T01:55:37.508Z,99503.07
2023-04-30T01:58:09.742Z,99501.13
2023-04-30T02:00:39.532Z,99502.61
2023-04-30T02:03:08.572Z,99500.73
2023-04-30T02:05:37.224Z,99501.61
2023-04-30T02:08:06.037Z,99494.15
2023-04-30T02:10:35.033Z,99507.56
2023-04-30T02:13:04.344Z,99508.79
2023-04-30T02:15:32.841Z,99503.88
2023-04-30T02:18:01.342Z,99507.09
2023-04-30T02:20:29.778Z,99504.36
2023-04-30T02:22:58.437Z,99500.33
2023-04-30T02:25:26.967Z,99501.38
2023-04-30T02:27:55.368Z,99501.66
2023-04-30T02:30:23.731Z,99501.17
2023-04-30T02:32:52.245Z,99499.85
2023-04-30T02:35:20.949Z,99501.27
2023-04-30T02:37:49.285Z,99492.30
2023-04-30T02:40:17.818Z,99502.78
2023-04-30T02:42:46.172Z,99502.83
2023-04-30T02:45:14.848Z,99501.19
2023-04-30T02:47:43.311Z,99493.39
2023-04-30T02:50:11.691Z,99489.43
2023-04-30T02:52:40.347Z,99502.79
2023-04-30T02:55:09.162Z,99502.20
2023-04-30T02:57:37.628Z,99502.08
2023-04-30T03:00:07.353Z,99503.23
2023-04-30T03:02:35.960Z,99501.30
2023-04-30T03:05:04.815Z,99504.80
2023-04-30T03:07:33.431Z,99504.05
2023-04-30T03:10:01.748Z,99507.92
2023-04-30T03:12:30.127Z,99505.38
2023-04-30T03:14:58.532Z,99506.27
2023-04-30T03:17:26.865Z,99498.00
2023-04-30T03:19:55.442Z,99506.10
2023-04-30T03:22:26.864Z,99508.48
2023-04-30T03:24:55.677Z,99506.59
2023-04-30T03:27:24.176Z,99510.98
2023-04-30T03:29:52.841Z,99517.46
2023-04-30T03:32:21.540Z,99521.69
2023-04-30T03:34:50.997Z,99519.93
2023-04-30T03:37:19.393Z,99523.95
2023-04-30T03:39:47.727Z,99525.91
2023-04-30T03:42:16.244Z,99523.84
2023-04-30T03:44:44.829Z,99526.59
2023-04-30T03:47:13.401Z,99528.86
2023-04-30T03:49:41.734Z,99528.86
2023-04-30T03:52:10.618Z,99528.61
2023-04-30T03:54:39.177Z,99530.82
2023-04-30T03:57:10.915Z,99528.02
2023-04-30T03:59:39.379Z,99511.89
2023-04-30T04:02:08.123Z,99515.70
2023-04-30T04:04:36.669Z,99526.75
2023-04-30T04:07:05.171Z,99527.87
2023-04-30T04:09:33.648Z,99528.11
2023-04-30T04:12:02.934Z,99531.00
2023-04-30T04:14:31.415Z,99532.52
2023-04-30T04:17:00.384Z,99532.75
2023-04-30T04:19:28.864Z,99534.61
2023-04-30T04:21:57.932Z,99537.85
2023-04-30T04:24:26.658Z,99540.67
2023-04-30T04:26:56.283Z,99539.67
2023-04-30T04:29:24.793Z,99536.02
2023-04-30T04:31:53.231Z,99525.39
2023-04-30T04:34:21.917Z,99527.45
2023-04-30T04:36:50.348Z,99524.61
2023-04-30T04:39:18.934Z,99525.06
2023-04-30T04:41:47.292Z,99525.89
2023-04-30T04:44:15.624Z,99527.40
2023-04-30T04:46:44.691Z,99525.48
2023-04-30T04:49:13.779Z,99528.32
2023-04-30T04:51:42.141Z,99533.48
2023-04-30T04:54:10.496Z,99534.77
2023-04-30T04:56:39.026Z,99535.66
2023-04-30T04:59:08.389Z,99536.84
2023-04-30T05:01:36.750Z,99538.74
2023-04-30T05:04:05.370Z,99539.02
2023-04-30T05:06:33.832Z,99535.99
2023-04-30T05:09:03.086Z,99539.89
2023-04-30T05:11:31.520Z,99539.09
2023-04-30T05:14:00.087Z,99539.55
2023-04-30T05:16:28.722Z,99541.98
2023-04-30T05:18:57.189Z,99542.39
2023-04-30T05:21:29.851Z,99546.71
2023-04-30T05:23:58.761Z,99535.30
2023-04-30T05:26:27.317Z,99547.86
2023-04-30T05:28:55.752Z,99551.79
2023-04-30T05:31:24.186Z,99554.70
2023-04-30T05:33:52.523Z,99555.13
2023-04-30T05:36:20.888Z,99551.95
2023-04-30T05:38:49.243Z,99547.88
2023-04-30T05:41:17.594Z,99542.06
2023-04-30T05:43:46.021Z,99541.95
2023-04-30T05:46:14.651Z,99542.17
2023-04-30T05:48:43.048Z,99535.61
2023-04-30T05:51:11.572Z,99553.80
2023-04-30T05:53:40.192Z,99552.91
2023-04-30T05:56:09.184Z,99554.62
2023-04-30T05:58:37.725Z,99556.21
2023-04-30T06:01:06.328Z,99554.83
2023-04-30T06:03:34.664Z,99553.30
2023-04-30T06:06:03.116Z,99552.21
2023-04-30T06:08:31.780Z,99550.22
2023-04-30T06:11:00.760Z,99548.64
2023-04-30T06:13:29.142Z,99538.79
2023-04-30T06:15:57.581Z,99550.72
2023-04-30T06:18:26.598Z,99548.61
2023-04-30T06:20:55.077Z,99551.02
2023-04-30T06:23:23.620Z,99551.29
2023-04-30T06:25:51.965Z,99547.35
2023-04-30T06:28:20.450Z,99550.42
2023-04-30T06:30:48.804Z,99533.77
2023-04-30T06:33:17.145Z,99542.21
2023-04-30T06:35:45.459Z,99540.52
2023-04-30T06:38:14.623Z,99536.70
2023-04-30T06:40:43.057Z,99537.64
2023-04-30T06:43:11.828Z,99536.17
2023-04-30T06:45:40.626Z,99534.77
2023-04-30T06:48:09.244Z,99535.15
2023-04-30T06:50:45.105Z,99523.98
2023-04-30T06:53:14.590Z,99532.22
2023-04-30T06:55:43.284Z,99523.08
2023-04-30T06:58:11.779Z,99527.52
2023-04-30T07:00:40.627Z,99531.13
2023-04-30T07:03:09.331Z,99526.65
2023-04-30T07:05:37.901Z,99522.63
2023-04-30T07:08:07.237Z,99524.55
2023-04-30T07:10:35.674Z,99525.75
2023-04-30T07:13:04.107Z,99526.83
2023-04-30T07:15:32.784Z,99523.98
2023-04-30T07:18:01.284Z,99523.41
2023-04-30T07:20:30.303Z,99520.23
2023-04-30T07:22:58.772Z,99521.48
2023-04-30T07:25:27.310Z,99525.54
2023-04-30T07:27:55.879Z,99524.67
2023-04-30T07:30:25.225Z,99517.43
2023-04-30T07:32:53.849Z,99525.52
2023-04-30T07:35:22.200Z,99524.37
2023-04-30T07:37:50.786Z,99521.08
2023-04-30T07:40:29.175Z,99519.73
2023-04-30T07:43:05.254Z,99519.70
2023-04-30T07:45:34.951Z,99518.61
2023-04-30T07:48:03.982Z,99518.75
2023-04-30T07:50:35.492Z,99514.55
2023-04-30T07:53:05.245Z,99514.05
2023-04-30T07:55:33.673Z,99506.39
2023-04-30T07:58:04.036Z,99512.66
2023-04-30T08:00:32.536Z,99516.17
2023-04-30T08:03:01.180Z,99511.09
2023-04-30T08:05:29.743Z,99510.67
2023-04-30T08:07:58.262Z,99510.10
2023-04-30T08:10:27.068Z,99511.06
2023-04-30T08:12:55.610Z,99506.14
2023-04-30T08:15:24.141Z,99505.92
2023-04-30T08:17:53.076Z,99504.36
2023-04-30T08:20:23.750Z,99501.13
2023-04-30T08:22:52.612Z,99503.30
2023-04-30T08:25:21.120Z,99487.45
2023-04-30T08:27:49.666Z,99499.52
2023-04-30T08:30:18.107Z,99497.55
2023-04-30T08:32:46.974Z,99493.25
2023-04-30T08:35:17.210Z,99502.25
2023-04-30T08:37:45.617Z,99500.29
2023-04-30T08:40:14.288Z,99498.52
2023-04-30T08:42:47.305Z,99499.53
2023-04-30T08:45:16.434Z,99498.82
2023-04-30T08:47:45.460Z,99497.27
2023-04-30T08:50:13.901Z,99488.00
2023-04-30T08:52:42.392Z,99483.34
2023-04-30T08:55:11.324Z,99482.90
2023-04-30T08:57:40.018Z,99481.77
2023-04-30T09:00:08.915Z,99488.27
2023-04-30T09:02:42.332Z,99476.66
2023-04-30T09:05:13.711Z,99474.95
2023-04-30T09:08:01.101Z,99480.52
2023-04-30T09:10:35.740Z,99473.72
2023-04-30T09:13:08.663Z,99472.89
2023-04-30T09:15:41.386Z,99464.25
2023-04-30T09:18:27.495Z,99467.29
2023-04-30T09:21:02.220Z,99466.45
2023-04-30T09:23:30.960Z,99472.80
2023-04-30T09:25:59.439Z,99459.27
2023-04-30T09:28:29.124Z,99453.36
2023-04-30T09:30:58.322Z,99461.10
2023-04-30T09:33:26.800Z,99451.28
2023-04-30T09:35:55.172Z,99458.71
2023-04-30T09:38:27.945Z,99461.04
2023-04-30T09:41:01.728Z,99458.64
2023-04-30T09:43:31.072Z,99457.08
2023-04-30T09:46:00.383Z,99456.52
2023-04-30T09:48:29.055Z,99449.30
2023-04-30T09:50:57.925Z,99460.82
2023-04-30T09:53:27.062Z,99451.11
2023-04-30T09:55:58.799Z,99454.13
2023-04-30T09:58:28.651Z,99446.84
2023-04-30T10:00:59.612Z,99450.45
2023-04-30T10:03:28.269Z,99452.77
2023-04-30T10:05:57.180Z,99459.10
2023-04-30T10:08:27.441Z,99450.89
2023-04-30T10:11:06.281Z,99446.89
2023-04-30T10:14:08.887Z,99448.81
2023-04-30T10:16:59.099Z,99445.49
2023-04-30T10:19:33.319Z,99436.39
2023-04-30T10:22:02.260Z,99429.98
2023-04-30T10:24:30.652Z,99429.89
2023-04-30T10:26:59.117Z,99427.40
2023-04-30T10:29:27.431Z,99420.85
2023-04-30T10:31:56.750Z,99434.25
2023-04-30T10:34:51.057Z,99431.87
2023-04-30T10:37:38.780Z,99442.61
2023-04-30T10:40:10.149Z,99441.14
2023-04-30T10:42:38.879Z,99435.73
2023-04-30T10:45:10.665Z,99432.25
2023-04-30T10:47:42.421Z,99429.59
2023-04-30T10:50:11.470Z,99424.48
2023-04-30T10:52:39.796Z,99430.02
2023-04-30T10:55:10.000Z,99426.20
2023-04-30T10:57:43.469Z,99426.21
2023-04-30T11:00:13.429Z,99423.27
2023-04-30T11:02:44.309Z,99423.33
2023-04-30T11:05:14.763Z,99420.98
2023-04-30T11:07:59.101Z,99425.67
2023-04-30T11:10:32.437Z,99423.72
2023-04-30T11:13:07.083Z,99417.90
2023-04-30T11:15:42.496Z,99413.06
2023-04-30T11:18:11.207Z,99412.77
2023-04-30T11:20:54.795Z,99408.78
2023-04-30T11:23:32.268Z,99410.48
2023-04-30T11:26:08.670Z,99412.63
2023-04-30T11:28:38.310Z,99413.72
2023-04-30T11:31:06.765Z,99416.18
2023-04-30T11:33:36.095Z,99421.27
2023-04-30T11:36:04.804Z,99417.03
2023-04-30T11:38:37.109Z,99414.88
2023-04-30T11:41:05.718Z,99418.44
2023-04-30T11:43:35.198Z,99410.88
2023-04-30T11:46:06.241Z,99404.39
2023-04-30T11:48:39.620Z,99408.30
2023-04-30T11:51:25.167Z,99414.84
2023-04-30T11:53:54.058Z,99410.73
2023-04-30T11:56:24.600Z,99406.67
2023-04-30T11:58:55.147Z,99398.59
2023-04-30T12:01:27.948Z,99395.70
2023-04-30T12:03:57.721Z,99390.11
2023-04-30T12:06:28.302Z,99396.62
2023-04-30T12:08:58.386Z,99403.92
2023-04-30T12:11:28.503Z,99392.45
2023-04-30T12:14:05.320Z,99390.71
2023-04-30T12:16:50.683Z,99382.11
2023-04-30T12:19:20.866Z,99386.37
2023-04-30T12:21:49.935Z,99387.36
2023-04-30T12:24:19.937Z,99395.52
2023-04-30T12:26:48.345Z,99390.91
2023-04-30T12:29:18.413Z,99382.54
2023-04-30T12:31:50.155Z,99387.77
2023-04-30T12:34:19.189Z,99378.80
2023-04-30T12:36:47.541Z,99378.11
2023-04-30T12:39:16.576Z,99374.04
2023-04-30T12:41:46.940Z,99371.75
2023-04-30T12:44:15.283Z,99378.39
2023-04-30T12:46:44.027Z,99378.52
2023-04-30T12:49:12.683Z,99375.45
2023-04-30T12:51:43.200Z,99376.60
2023-04-30T12:54:11.670Z,99380.27
2023-04-30T12:56:40.696Z,99378.02
2023-04-30T12:59:16.524Z,99377.72
2023-04-30T13:01:46.295Z,99372.48
2023-04-30T13:04:14.646Z,99370.61
2023-04-30T13:06:43.228Z,99380.36
2023-04-30T13:09:12.756Z,99378.06
2023-04-30T13:11:41.072Z,99372.61
2023-04-30T13:14:11.460Z,99357.94
2023-04-30T13:16:40.854Z,99363.17
2023-04-30T13:19:09.217Z,99354.33
2023-04-30T13:21:37.974Z,99366.05
2023-04-30T13:24:06.837Z,99365.30
2023-04-30T13:26:35.677Z,99363.41
2023-04-30T13:29:04.471Z,99350.85
2023-04-30T13:31:33.016Z,99358.89
2023-04-30T13:34:01.868Z,99361.11
2023-04-30T13:36:30.316Z,99357.19
2023-04-30T13:38:59.219Z,99367.91
2023-04-30T13:41:27.733Z,99375.13
2023-04-30T13:43:56.112Z,99374.01
2023-04-30T13:46:25.077Z,99379.79
2023-04-30T13:48:53.675Z,99379.42
2023-04-30T13:51:22.185Z,99376.91
2023-04-30T13:53:50.730Z,99384.17
2023-04-30T13:56:19.162Z,99381.54
2023-04-30T13:58:47.593Z,99384.92
2023-04-30T14:01:16.031Z,99385.23
2023-04-30T14:03:44.655Z,99377.32
2023-04-30T14:06:13.149Z,99381.20
2023-04-30T14:08:41.912Z,99380.95
2023-04-30T14:11:10.536Z,99380.27
2023-04-30T14:13:38.925Z,99377.93
2023-04-30T14:16:07.595Z,99373.67
2023-04-30T14:18:36.113Z,99372.58
2023-04-30T14:21:04.459Z,99373.86
2023-04-30T14:23:34.184Z,99372.33
2023-04-30T14:26:02.558Z,99362.31
2023-04-30T14:28:31.039Z,99370.71
2023-04-30T14:30:59.433Z,99368.36
2023-04-30T14:33:27.726Z,99368.29
2023-04-30T14:35:56.160Z,99363.08
2023-04-30T14:38:24.552Z,99364.21
2023-04-30T14:40:53.163Z,99361.11
2023-04-30T14:43:21.643Z,99358.99
2023-04-30T14:45:50.836Z,99363.38
2023-04-30T14:48:19.250Z,99354.50
2023-04-30T14:50:47.649Z,99363.77
2023-04-30T14:53:16.009Z,99364.26
2023-04-30T14:55:44.412Z,99359.61
2023-04-30T14:58:12.996Z,99367.20
2023-04-30T15:00:41.372Z,99363.77
2023-04-30T15:03:09.882Z,99364.98
2023-04-30T15:05:38.435Z,99364.54
2023-04-30T15:08:07.132Z,99364.42
2023-04-30T15:10:35.702Z,99361.48
2023-04-30T15:13:04.398Z,99362.73
2023-04-30T15:15:32.851Z,99359.38
2023-04-30T15:18:02.132Z,99360.52
2023-04-30T15:20:30.724Z,99371.30
2023-04-30T15:22:59.377Z,99367.23
2023-04-30T15:25:27.885Z,99369.89
2023-04-30T15:27:56.230Z,99373.95
2023-04-30T15:30:24.709Z,99362.38
2023-04-30T15:32:53.264Z,99373.27
2023-04-30T15:35:21.598Z,99372.00
2023-04-30T15:37:51.259Z,99372.05
2023-04-30T15:40:19.748Z,99366.34
2023-04-30T15:42:48.149Z,99371.84
2023-04-30T15:45:16.885Z,99375.20
2023-04-30T15:47:45.206Z,99374.24
2023-04-30T15:50:13.741Z,99376.24
2023-04-30T15:52:42.177Z,99379.20
2023-04-30T15:55:10.734Z,99378.55
2023-04-30T15:57:39.209Z,99381.06
2023-04-30T16:00:09.040Z,99379.88
2023-04-30T16:02:43.218Z,99381.93
2023-04-30T16:05:12.457Z,99377.27
2023-04-30T16:07:43.785Z,99375.52
2023-04-30T16:10:12.780Z,99367.58
2023-04-30T16:12:41.515Z,99376.86
2023-04-30T16:15:11.033Z,99378.67
2023-04-30T16:17:39.624Z,99381.95
2023-04-30T16:20:08.589Z,99380.11
2023-04-30T16:22:37.487Z,99384.63
2023-04-30T16:25:08.468Z,99377.28
2023-04-30T16:27:37.584Z,99379.51
2023-04-30T16:30:06.781Z,99375.00
2023-04-30T16:32:35.558Z,99382.58
2023-04-30T16:35:05.000Z,99383.63
2023-04-30T16:37:33.484Z,99387.38
2023-04-30T16:40:01.991Z,99394.40
2023-04-30T16:42:31.082Z,99379.05
2023-04-30T16:44:59.713Z,99394.98
2023-04-30T16:47:28.216Z,99391.98
2023-04-30T16:49:58.626Z,99391.69
2023-04-30T16:52:28.474Z,99389.64
2023-04-30T16:54:56.869Z,99389.64
2023-04-30T16:57:27.755Z,99390.53
2023-04-30T16:59:56.340Z,99393.87
2023-04-30T17:02:25.057Z,99397.23
2023-04-30T17:04:53.770Z,99396.02
2023-04-30T17:07:22.094Z,99400.65
2023-04-30T17:09:50.841Z,99401.73
2023-04-30T17:12:19.263Z,99397.25
2023-04-30T17:14:48.033Z,99404.34
2023-04-30T17:17:16.454Z,99402.10
2023-04-30T17:19:44.812Z,99398.96
2023-04-30T17:22:13.388Z,99403.63
2023-04-30T17:24:41.953Z,99402.10
2023-04-30T17:27:10.355Z,99394.54
2023-04-30T17:29:38.978Z,99405.89
2023-04-30T17:32:07.648Z,99389.95
2023-04-30T17:34:36.644Z,99408.26
2023-04-30T17:37:05.055Z,99415.57
2023-04-30T17:39:33.392Z,99414.10
2023-04-30T17:42:01.755Z,99419.52
2023-04-30T17:44:32.141Z,99410.74
2023-04-30T17:47:00.610Z,99425.41
2023-04-30T17:49:30.349Z,99425.78
2023-04-30T17:52:02.014Z,99429.34
2023-04-30T17:54:31.037Z,99422.35
2023-04-30T17:56:59.883Z,99435.92
2023-04-30T17:59:29.372Z,99439.15
2023-04-30T18:01:58.075Z,99441.66
2023-04-30T18:04:26.495Z,99440.05
2023-04-30T18:06:54.867Z,99442.73
2023-04-30T18:09:23.853Z,99447.95
2023-04-30T18:11:52.946Z,99451.94
2023-04-30T18:14:21.310Z,99449.09
2023-04-30T18:16:50.160Z,99454.16
2023-04-30T18:19:19.103Z,99459.24
2023-04-30T18:21:47.416Z,99460.63
2023-04-30T18:24:15.911Z,99461.41
2023-04-30T18:26:44.280Z,99465.77
2023-04-30T18:29:13.846Z,99454.45
2023-04-30T18:31:44.009Z,99468.45
2023-04-30T18:34:13.323Z,99462.95
2023-04-30T18:36:44.513Z,99478.20
2023-04-30T18:39:12.921Z,99479.51
2023-04-30T18:41:41.333Z,99482.02
2023-04-30T18:44:11.732Z,99481.46
2023-04-30T18:46:40.164Z,99483.45
2023-04-30T18:49:08.726Z,99485.22
2023-04-30T18:51:37.925Z,99479.83
2023-04-30T18:54:06.326Z,99483.08
2023-04-30T18:56:34.899Z,99485.89
2023-04-30T18:59:03.272Z,99486.69
2023-04-30T19:01:32.073Z,99488.77
2023-04-30T19:04:00.783Z,99488.63
2023-04-30T19:06:29.237Z,99491.73
2023-04-30T19:08:59.883Z,99490.14
2023-04-30T19:11:28.857Z,99490.73
2023-04-30T19:13:58.741Z,99489.19
2023-04-30T19:16:27.304Z,99497.17
2023-04-30T19:18:55.796Z,99495.88
2023-04-30T19:21:24.499Z,99495.90
2023-04-30T19:23:52.900Z,99494.23
2023-04-30T19:26:22.690Z,99495.60
2023-04-30T19:28:51.509Z,99494.79
2023-04-30T19:31:20.140Z,99496.30
2023-04-30T19:33:48.637Z,99492.45
2023-04-30T19:36:17.662Z,99494.73
2023-04-30T19:38:46.106Z,99500.79
2023-04-30T19:41:14.431Z,99497.98
2023-04-30T19:43:42.810Z,99506.08
2023-04-30T19:46:11.906Z,99510.19
2023-04-30T19:48:40.322Z,99510.14
2023-04-30T19:51:09.455Z,99507.02
2023-04-30T19:53:38.182Z,99508.45
2023-04-30T19:56:07.229Z,99511.20
2023-04-30T19:58:35.819Z,99511.63
2023-04-30T20:01:05.550Z,99512.26
2023-04-30T20:03:35.903Z,99508.63
2023-04-30T20:06:05.028Z,99501.48
2023-04-30T20:08:33.459Z,99509.80
2023-04-30T20:11:03.424Z,99511.09
2023-04-30T20:13:32.370Z,99516.00
2023-04-30T20:16:01.049Z,99513.94
2023-04-30T20:18:29.794Z,99516.41
2023-04-30T20:21:01.354Z,99513.73
2023-04-30T20:23:29.764Z,99519.02
2023-04-30T20:25:58.272Z,99523.45
2023-04-30T20:28:27.145Z,99525.14
2023-04-30T20:30:55.972Z,99528.96
2023-04-30T20:33:25.733Z,99511.75
2023-04-30T20:35:54.051Z,99535.91
2023-04-30T20:38:22.791Z,99537.23
2023-04-30T20:40:51.313Z,99541.23
2023-04-30T20:43:20.229Z,99532.73
2023-04-30T20:45:48.685Z,99530.72
2023-04-30T20:48:17.557Z,99539.98
2023-04-30T20:50:46.430Z,99540.70
2023-04-30T20:53:15.369Z,99544.66
2023-04-30T20:55:43.949Z,99546.40
2023-04-30T20:58:12.526Z,99549.11
2023-04-30T21:00:40.978Z,99554.61
2023-04-30T21:03:09.816Z,99543.49
2023-04-30T21:05:38.730Z,99553.64
2023-04-30T21:08:07.137Z,99554.05
2023-04-30T21:10:36.728Z,99552.33
2023-04-30T21:13:06.064Z,99556.50
2023-04-30T21:15:40.054Z,99556.37
2023-04-30T21:18:09.063Z,99544.84
2023-04-30T21:20:37.705Z,99557.04
2023-04-30T21:23:06.168Z,99557.29
2023-04-30T21:25:37.168Z,99563.20
2023-04-30T21:28:06.354Z,99553.35
2023-04-30T21:30:36.498Z,99565.76
2023-04-30T21:33:04.990Z,99557.33
2023-04-30T21:35:33.658Z,99544.27
2023-04-30T21:38:02.239Z,99570.14
2023-04-30T21:40:33.982Z,99570.21
2023-04-30T21:43:02.367Z,99571.00
2023-04-30T21:45:35.161Z,99575.12
2023-04-30T21:48:03.886Z,99570.61
2023-04-30T21:50:33.240Z,99581.23
2023-04-30T21:53:03.579Z,99584.41
2023-04-30T21:55:32.187Z,99577.62
2023-04-30T21:58:00.668Z,99583.84
2023-04-30T22:00:29.128Z,99590.42
2023-04-30T22:02:57.550Z,99583.92
2023-04-30T22:05:26.208Z,99596.33
2023-04-30T22:07:55.252Z,99602.75
2023-04-30T22:10:23.894Z,99603.06
2023-04-30T22:12:52.401Z,99606.82
2023-04-30T22:15:21.682Z,99610.00
2023-04-30T22:17:50.109Z,99612.87
2023-04-30T22:20:18.601Z,99601.40
2023-04-30T22:22:47.458Z,99615.89
2023-04-30T22:25:16.162Z,99618.08
2023-04-30T22:27:45.805Z,99632.38
2023-04-30T22:30:14.793Z,99638.24
2023-04-30T22:32:43.180Z,99641.54
2023-04-30T22:35:11.809Z,99635.08
2023-04-30T22:37:40.390Z,99640.27
2023-04-30T22:40:09.116Z,99638.54
2023-04-30T22:42:37.585Z,99628.41
2023-04-30T22:45:06.439Z,99642.41
2023-04-30T22:47:35.470Z,99637.85
2023-04-30T22:50:05.089Z,99642.90
2023-04-30T22:52:33.489Z,99641.77
2023-04-30T22:55:02.201Z,99642.42
2023-04-30T22:57:30.616Z,99648.04
2023-04-30T22:59:59.494Z,99645.35
2023-04-30T23:02:28.905Z,99648.60
2023-04-30T23:04:57.394Z,99644.77
2023-04-30T23:07:26.162Z,99648.19
2023-04-30T23:09:54.817Z,99644.66
2023-04-30T23:12:23.543Z,99651.96
2023-04-30T23:14:51.937Z,99653.83
2023-04-30T23:17:20.408Z,99651.66
2023-04-30T23:19:49.026Z,99658.02
2023-04-30T23:22:17.784Z,99661.35
2023-04-30T23:24:46.178Z,99662.95
2023-04-30T23:27:14.881Z,99644.73
2023-04-30T23:29:43.520Z,99663.91
2023-04-30T23:32:11.939Z,99663.05
2023-04-30T23:34:40.772Z,99660.04
2023-04-30T23:37:09.180Z,99664.89
2023-04-30T23:39:37.509Z,99644.16
2023-04-30T23:42:05.903Z,99668.79
2023-04-30T23:44:34.689Z,99679.14
2023-04-30T23:47:03.124Z,99677.29
2023-04-30T23:49:31.614Z,99681.84
2023-04-30T23:51:59.975Z,99686.54
2023-04-30T23:54:29.054Z,99684.56
2023-04-30T23:56:57.429Z,99692.50
2023-04-30T23:59:26.067Z,99693.77
